createdAt,value
2019-05-07T00:01:42.912Z,4.60
2019-05-07T00:06:44.104Z,4.60
2019-05-07T00:11:45.199Z,5.30
2019-05-07T00:16:46.316Z,4.60
2019-05-07T00:21:47.412Z,4.70
2019-05-07T00:26:48.512Z,4.70
2019-05-07T00:31:51.896Z,4.80
2019-05-07T00:36:54.533Z,4.70
2019-05-07T00:41:57.546Z,4.70
2019-05-07T00:46:58.643Z,4.70
2019-05-07T00:51:59.738Z,4.80
2019-05-07T00:57:02.955Z,4.80
2019-05-07T01:02:04.800Z,4.90
2019-05-07T01:07:05.994Z,4.80
2019-05-07T01:12:07.187Z,4.70
2019-05-07T01:17:08.329Z,4.60
2019-05-07T01:22:09.419Z,4.20
2019-05-07T01:27:12.794Z,3.90
2019-05-07T01:32:22.179Z,3.80
2019-05-07T01:37:23.503Z,3.40
2019-05-07T01:42:24.582Z,3.80
2019-05-07T01:47:25.687Z,3.10
2019-05-07T01:52:26.775Z,2.90
2019-05-07T01:57:27.865Z,3.30
2019-05-07T02:02:33.643Z,2.60
2019-05-07T02:07:36.635Z,2.50
2019-05-07T02:12:38.731Z,2.30
2019-05-07T02:17:39.851Z,2.20
2019-05-07T02:22:42.782Z,2.10
2019-05-07T02:27:43.943Z,2.90
2019-05-07T02:32:45.033Z,2.10
2019-05-07T02:37:52.596Z,2.10
2019-05-07T02:42:54.034Z,2.10
2019-05-07T02:47:54.310Z,2.00
2019-05-07T02:53:03.919Z,1.90
2019-05-07T02:58:03.904Z,1.90
2019-05-07T03:03:05.255Z,1.70
2019-05-07T03:08:06.567Z,1.60
2019-05-07T03:13:07.782Z,1.50
2019-05-07T03:18:09.094Z,1.40
2019-05-07T03:23:13.383Z,1.30
2019-05-07T03:28:14.687Z,1.20
2019-05-07T03:33:17.952Z,1.20
2019-05-07T03:38:19.125Z,1.10
2019-05-07T03:43:22.862Z,0.90
2019-05-07T03:48:25.432Z,0.80
2019-05-07T03:53:26.537Z,0.90
2019-05-07T03:58:27.648Z,1.00
2019-05-07T04:03:29.071Z,1.00
2019-05-07T04:08:33.073Z,1.10
2019-05-07T04:13:33.862Z,1.30
2019-05-07T04:18:35.162Z,1.30
2019-05-07T04:23:36.274Z,1.40
2019-05-07T04:28:55.850Z,1.40
2019-05-07T04:33:58.850Z,1.60
2019-05-07T04:39:02.689Z,1.90
2019-05-07T04:44:03.917Z,2.20
2019-05-07T04:49:05.363Z,2.50
2019-05-07T04:54:06.446Z,2.70
2019-05-07T04:59:07.541Z,3.00
2019-05-07T05:04:24.347Z,3.30
2019-05-07T05:09:12.556Z,3.60
2019-05-07T05:14:13.960Z,3.70
2019-05-07T05:19:15.083Z,4.00
2019-05-07T05:24:22.192Z,4.10
2019-05-07T05:29:23.480Z,4.20
2019-05-07T05:34:24.575Z,4.30
2019-05-07T05:39:25.692Z,5.30
2019-05-07T05:44:33.820Z,4.90
2019-05-07T05:49:34.911Z,5.30
2019-05-07T05:54:49.735Z,5.50
2019-05-07T05:59:55.471Z,5.70
2019-05-07T06:05:14.426Z,6.00
2019-05-07T06:10:17.412Z,6.10
2019-05-07T06:15:23.431Z,6.20
2019-05-07T06:20:29.155Z,6.50
2019-05-07T06:25:33.206Z,6.80
2019-05-07T06:30:33.839Z,7.30
2019-05-07T06:35:35.060Z,7.30
2019-05-07T06:40:46.904Z,7.90
2019-05-07T06:45:51.921Z,8.20
2019-05-07T06:50:55.671Z,8.60
2019-05-07T06:55:58.166Z,8.70
2019-05-07T07:01:07.217Z,8.90
2019-05-07T07:06:16.289Z,9.20
2019-05-07T07:11:19.291Z,9.30
2019-05-07T07:16:22.456Z,10.00
2019-05-07T07:21:23.488Z,10.10
2019-05-07T07:26:24.579Z,10.50
2019-05-07T07:31:31.866Z,10.60
2019-05-07T07:36:42.352Z,10.90
2019-05-07T07:41:45.450Z,11.40
2019-05-07T07:46:46.552Z,11.30
2019-05-07T07:51:47.648Z,11.70
2019-05-07T07:56:53.823Z,11.70
2019-05-07T08:01:58.562Z,11.80
2019-05-07T08:07:03.003Z,12.00
2019-05-07T08:12:04.721Z,12.60
2019-05-07T08:17:07.984Z,13.00
2019-05-07T08:22:09.181Z,13.50
2019-05-07T08:27:14.740Z,13.70
2019-05-07T08:32:27.720Z,13.10
2019-05-07T08:37:28.957Z,13.00
2019-05-07T08:42:32.055Z,12.80
2019-05-07T08:47:42.524Z,12.80
2019-05-07T08:52:43.743Z,13.60
2019-05-07T08:57:45.970Z,13.80
2019-05-07T09:02:47.341Z,13.80
2019-05-07T09:07:48.436Z,14.00
2019-05-07T09:12:49.524Z,14.10
2019-05-07T09:17:52.545Z,14.10
2019-05-07T09:22:53.839Z,14.20
2019-05-07T09:27:55.252Z,15.00
2019-05-07T09:32:58.358Z,15.80
2019-05-07T09:37:59.447Z,15.30
2019-05-07T09:43:02.366Z,15.60
2019-05-07T09:48:03.756Z,16.50
2019-05-07T09:53:05.063Z,17.00
2019-05-07T09:58:06.152Z,17.60
2019-05-07T10:03:07.367Z,17.50
2019-05-07T10:08:08.676Z,17.50
2019-05-07T10:13:17.692Z,18.10
2019-05-07T10:18:19.204Z,18.20
2019-05-07T10:23:22.773Z,20.50
2019-05-07T10:28:23.613Z,19.70
2019-05-07T10:33:24.791Z,19.10
2019-05-07T10:38:25.868Z,18.00
2019-05-07T10:43:27.071Z,18.10
2019-05-07T10:48:42.017Z,18.20
2019-05-07T10:53:43.421Z,17.80
2019-05-07T10:58:44.619Z,17.70
2019-05-07T11:03:45.735Z,18.20
2019-05-07T11:08:46.844Z,18.20
2019-05-07T11:13:47.946Z,18.90
2019-05-07T11:18:51.809Z,20.30
2019-05-07T11:23:53.078Z,21.50
2019-05-07T11:28:54.187Z,23.30
2019-05-07T11:33:55.401Z,23.50
2019-05-07T11:38:56.501Z,22.50
2019-05-07T11:44:01.647Z,20.00
2019-05-07T11:49:16.692Z,20.80
2019-05-07T11:54:17.871Z,20.30
2019-05-07T11:59:18.977Z,20.00
2019-05-07T12:04:20.101Z,22.20
2019-05-07T12:09:21.781Z,25.50
2019-05-07T12:14:30.914Z,26.50
2019-05-07T12:19:26.116Z,24.50
2019-05-07T12:24:27.230Z,24.40
2019-05-07T12:29:28.327Z,26.20
2019-05-07T12:34:31.895Z,27.10
2019-05-07T12:39:33.148Z,27.20
2019-05-07T12:44:34.254Z,26.30
2019-05-07T12:49:35.359Z,27.50
2019-05-07T12:54:47.337Z,27.30
2019-05-07T12:59:49.701Z,27.50
2019-05-07T13:04:52.138Z,29.30
2019-05-07T13:09:53.876Z,27.40
2019-05-07T13:14:54.979Z,25.30
2019-05-07T13:19:56.109Z,26.50
2019-05-07T13:24:57.220Z,28.40
2019-05-07T13:29:58.336Z,29.30
2019-05-07T13:35:02.713Z,29.80
2019-05-07T13:40:06.786Z,30.20
2019-05-07T13:45:15.994Z,31.10
2019-05-07T13:50:17.298Z,28.60
2019-05-07T13:55:18.586Z,27.20
2019-05-07T14:00:32.453Z,25.00
2019-05-07T14:05:33.749Z,22.00
2019-05-07T14:10:35.089Z,21.20
2019-05-07T14:15:36.184Z,22.20
2019-05-07T14:20:37.286Z,26.50
2019-05-07T14:25:38.402Z,27.70
2019-05-07T14:30:41.966Z,28.50
2019-05-07T14:35:44.392Z,28.80
2019-05-07T14:40:45.612Z,27.80
2019-05-07T14:45:46.908Z,28.60
2019-05-07T14:50:48.216Z,28.70
2019-05-07T14:55:49.423Z,29.40
2019-05-07T15:00:51.829Z,26.30
2019-05-07T15:05:53.157Z,27.20
2019-05-07T15:10:54.477Z,28.10
2019-05-07T15:15:55.635Z,29.00
2019-05-07T15:20:56.756Z,28.50
2019-05-07T15:25:57.952Z,29.60
2019-05-07T15:31:02.813Z,29.10
2019-05-07T15:36:06.494Z,29.30
2019-05-07T15:41:07.390Z,28.70
2019-05-07T15:46:08.697Z,28.70
2019-05-07T15:51:11.752Z,26.20
2019-05-07T15:56:12.895Z,25.80
2019-05-07T16:01:14.113Z,26.70
2019-05-07T16:06:15.247Z,27.40
2019-05-07T16:11:16.456Z,27.20
2019-05-07T16:16:17.565Z,26.90
2019-05-07T16:21:18.727Z,27.40
2019-05-07T16:26:21.896Z,25.10
2019-05-07T16:31:24.730Z,24.10
2019-05-07T16:36:25.912Z,24.50
2019-05-07T16:41:27.040Z,23.80
2019-05-07T16:46:28.151Z,23.40
2019-05-07T16:51:29.266Z,22.20
2019-05-07T16:56:30.383Z,21.00
2019-05-07T17:01:32.440Z,21.00
2019-05-07T17:06:33.823Z,20.20
2019-05-07T17:11:34.968Z,19.50
2019-05-07T17:16:36.289Z,18.60
2019-05-07T17:21:37.417Z,18.20
2019-05-07T17:26:38.694Z,18.30
2019-05-07T17:31:39.798Z,18.30
2019-05-07T17:36:42.328Z,18.60
2019-05-07T17:41:43.685Z,18.60
2019-05-07T17:46:46.192Z,18.80
2019-05-07T17:51:47.627Z,18.40
2019-05-07T17:56:48.741Z,17.40
2019-05-07T18:01:54.938Z,16.20
2019-05-07T18:06:56.129Z,15.20
2019-05-07T18:11:57.566Z,14.30
2019-05-07T18:17:02.107Z,13.70
2019-05-07T18:22:03.916Z,13.10
2019-05-07T18:27:07.139Z,12.80
2019-05-07T18:32:08.369Z,12.50
2019-05-07T18:37:09.795Z,12.30
2019-05-07T18:42:12.703Z,12.00
2019-05-07T18:47:14.174Z,11.70
2019-05-07T18:52:15.290Z,11.20
2019-05-07T18:57:16.438Z,10.80
2019-05-07T19:02:17.783Z,10.60
2019-05-07T19:07:19.025Z,10.80
2019-05-07T19:12:22.422Z,10.10
2019-05-07T19:17:25.644Z,10.00
2019-05-07T19:22:27.036Z,9.80
2019-05-07T19:27:28.365Z,9.60
2019-05-07T19:32:32.113Z,9.50
2019-05-07T19:37:32.930Z,9.40
2019-05-07T19:42:34.048Z,9.20
2019-05-07T19:47:35.202Z,9.10
2019-05-07T19:52:36.524Z,9.00
2019-05-07T19:57:45.385Z,8.90
2019-05-07T20:02:48.463Z,8.80
2019-05-07T20:07:53.326Z,8.70
2019-05-07T20:12:53.080Z,8.60
2019-05-07T20:17:54.282Z,11.10
2019-05-07T20:22:55.445Z,8.50
2019-05-07T20:28:02.188Z,8.50
2019-05-07T20:33:03.701Z,9.10
2019-05-07T20:38:05.058Z,9.80
2019-05-07T20:43:06.206Z,10.20
2019-05-07T20:48:07.338Z,10.50
2019-05-07T20:53:08.450Z,10.70
2019-05-07T20:58:09.658Z,10.70
2019-05-07T21:03:20.080Z,10.70
2019-05-07T21:08:22.746Z,10.70
2019-05-07T21:13:30.810Z,10.80
2019-05-07T21:18:27.511Z,10.80
2019-05-07T21:23:28.726Z,10.90
2019-05-07T21:28:32.163Z,11.00
2019-05-07T21:33:32.988Z,11.10
2019-05-07T21:38:34.085Z,11.10
2019-05-07T21:43:35.355Z,11.10
2019-05-07T21:48:36.575Z,11.10
2019-05-07T21:53:39.584Z,11.00
2019-05-07T21:58:45.658Z,11.00
2019-05-07T22:03:48.683Z,10.90
2019-05-07T22:08:54.425Z,10.80
2019-05-07T22:13:55.428Z,10.80
2019-05-07T22:18:56.555Z,10.70
2019-05-07T22:23:57.674Z,10.90
2019-05-07T22:28:58.774Z,10.90
2019-05-07T22:34:07.514Z,10.80
2019-05-07T22:39:08.710Z,10.80
2019-05-07T22:44:11.833Z,10.80
2019-05-07T22:49:13.044Z,10.80
2019-05-07T22:54:14.149Z,10.60
2019-05-07T22:59:15.231Z,10.70
2019-05-07T23:04:16.351Z,10.70
2019-05-07T23:09:17.450Z,10.80
2019-05-07T23:14:18.567Z,10.70
2019-05-07T23:19:21.836Z,10.60
2019-05-07T23:24:24.900Z,10.60
2019-05-07T23:29:25.702Z,10.60
2019-05-07T23:34:26.788Z,10.70
2019-05-07T23:39:36.811Z,10.70
2019-05-07T23:44:38.004Z,10.60
2019-05-07T23:49:39.096Z,10.40
2019-05-07T23:54:42.443Z,10.30
2019-05-07T23:59:43.177Z,10.20
